Time;durP1;ratioP1;P1;durP2;ratioP2;P2;SDS_P1;SDS_P2;PMS_P1;PMS_P2;Temp;Humidity;BMP_temperature;BMP_pressure;BME280_temperature;BME280_humidity;BME280_pressure;Samples;Min_cycle;Max_cycle;Signal;HPM_P1;HPM_P2
2023/09/29 00:01:11;;;;;;;4.70;1.70;;;;;;;16.03;67.71;100078.75;10468846;28;20084;-61
2023/09/29 00:06:13;;;;;;;4.97;2.30;;;;;;;16.07;67.35;100067.00;10468574;28;20516;-61
2023/09/29 00:11:16;;;;;;;3.67;2.03;;;;;;;16.12;67.56;100069.28;10455812;28;20400;-60
2023/09/29 00:16:18;;;;;;;6.38;2.42;;;;;;;16.04;67.48;100076.97;10468640;28;20105;-61
2023/09/29 00:21:20;;;;;;;3.22;2.00;;;;;;;15.97;67.56;100087.16;10468634;28;20115;-61
2023/09/29 00:26:22;;;;;;;3.50;1.80;;;;;;;16.04;67.46;100098.06;10465599;28;20215;-60
2023/09/29 00:31:25;;;;;;;3.75;1.77;;;;;;;16.12;67.34;100093.84;10451013;28;20049;-61
2023/09/29 00:36:27;;;;;;;3.25;1.90;;;;;;;16.21;66.94;100090.47;10475506;28;20044;-60
2023/09/29 00:41:30;;;;;;;3.67;2.00;;;;;;;16.28;66.89;100098.75;10452915;28;20062;-61
2023/09/29 00:46:32;;;;;;;3.95;2.10;;;;;;;16.22;66.89;100086.84;10466764;28;20308;-60
2023/09/29 00:51:35;;;;;;;4.43;1.80;;;;;;;16.34;66.64;100092.13;10452736;28;20049;-60
2023/09/29 00:56:39;;;;;;;5.15;1.75;;;;;;;16.32;66.80;100084.34;10466185;28;20131;-61
2023/09/29 01:01:41;;;;;;;4.28;1.90;;;;;;;16.39;66.79;100077.59;10450838;28;20078;-61
2023/09/29 01:06:44;;;;;;;4.43;1.90;;;;;;;16.34;66.55;100076.28;10476728;28;20488;-61
2023/09/29 01:11:46;;;;;;;3.42;1.70;;;;;;;16.23;66.80;100064.81;10469174;28;20051;-60
2023/09/29 01:16:49;;;;;;;3.03;1.80;;;;;;;16.28;67.18;100076.78;10465005;28;20079;-61
2023/09/29 01:21:51;;;;;;;3.95;2.20;;;;;;;16.41;66.83;100059.81;10481882;28;20102;-60
2023/09/29 01:26:53;;;;;;;5.82;2.05;;;;;;;16.41;66.44;100064.25;10467842;28;20145;-60
2023/09/29 01:31:57;;;;;;;6.22;2.17;;;;;;;16.26;66.62;100058.44;10449082;28;20093;-61
2023/09/29 01:37:02;;;;;;;3.05;2.05;;;;;;;16.36;66.58;100061.16;10455355;28;20055;-60
2023/09/29 01:42:07;;;;;;;4.72;2.20;;;;;;;16.44;66.65;100066.69;10460046;28;20382;-61
2023/09/29 01:47:09;;;;;;;4.13;2.30;;;;;;;16.52;66.38;100070.38;10463519;28;20048;-60
2023/09/29 01:52:11;;;;;;;3.75;2.10;;;;;;;16.58;66.36;100069.03;10465895;28;20473;-61
2023/09/29 01:57:13;;;;;;;3.38;1.70;;;;;;;16.54;66.26;100067.59;10475087;28;20033;-61
2023/09/29 02:02:16;;;;;;;2.75;1.88;;;;;;;16.51;66.29;100059.97;10452311;28;20048;-60
2023/09/29 02:07:18;;;;;;;2.67;1.65;;;;;;;16.39;66.56;100066.19;10423107;28;20493;-61
2023/09/29 02:12:21;;;;;;;5.88;1.88;;;;;;;16.47;66.63;100071.72;10460766;28;20032;-61
2023/09/29 02:17:23;;;;;;;3.15;1.90;;;;;;;16.59;66.24;100068.91;10455064;28;20046;-60
2023/09/29 02:22:25;;;;;;;3.80;1.88;;;;;;;16.70;66.35;100060.94;10463815;28;20043;-60
2023/09/29 02:27:27;;;;;;;4.60;2.00;;;;;;;16.76;66.20;100059.59;10474049;28;20050;-61
2023/09/29 02:32:29;;;;;;;3.75;1.70;;;;;;;16.72;65.94;100064.28;10470271;28;20055;-61
2023/09/29 02:37:32;;;;;;;3.72;2.03;;;;;;;16.73;65.92;100047.47;10471152;28;20110;-61
2023/09/29 02:42:34;;;;;;;4.68;1.83;;;;;;;16.80;65.92;100047.78;10459855;28;20411;-61
2023/09/29 02:47:39;;;;;;;3.22;2.03;;;;;;;16.78;66.01;100052.38;10470858;28;20118;-60
2023/09/29 02:52:44;;;;;;;3.95;2.00;;;;;;;16.69;66.05;100039.94;10459899;28;20135;-60
2023/09/29 02:57:46;;;;;;;6.53;2.40;;;;;;;16.55;66.07;100045.53;10460051;28;20036;-61
2023/09/29 03:02:52;;;;;;;3.70;1.90;;;;;;;16.34;66.76;100049.91;10479169;28;20058;-60
2023/09/29 03:07:57;;;;;;;8.15;2.13;;;;;;;16.18;67.15;100045.84;10472597;28;20048;-61
2023/09/29 03:13:00;;;;;;;10.68;2.80;;;;;;;16.24;66.95;100044.53;10484277;28;20046;-60
2023/09/29 03:18:02;;;;;;;6.18;1.85;;;;;;;16.37;67.00;100041.72;10470703;28;20040;-60
2023/09/29 03:23:04;;;;;;;4.47;1.88;;;;;;;16.39;66.58;100045.06;10470232;28;20044;-60
2023/09/29 03:28:07;;;;;;;5.38;2.03;;;;;;;16.32;66.42;100044.75;10452415;28;20056;-61
2023/09/29 03:33:10;;;;;;;3.35;1.80;;;;;;;16.29;66.55;100049.41;10456977;28;20044;-60
2023/09/29 03:38:14;;;;;;;3.38;1.95;;;;;;;16.36;66.43;100046.16;10475322;28;20257;-61
2023/09/29 03:43:17;;;;;;;6.80;2.28;;;;;;;16.39;66.43;100037.13;10474503;28;20049;-61
2023/09/29 03:48:18;;;;;;;4.32;2.20;;;;;;;16.44;66.56;100042.94;10467917;28;20040;-61
2023/09/29 03:53:21;;;;;;;3.55;1.98;;;;;;;16.44;66.66;100048.22;10469419;28;20040;-60
2023/09/29 03:58:24;;;;;;;3.95;1.90;;;;;;;16.47;66.61;100045.34;10476478;28;20430;-61
2023/09/29 04:03:26;;;;;;;3.78;1.88;;;;;;;16.44;66.55;100038.50;10464765;28;20044;-61
2023/09/29 04:08:29;;;;;;;4.47;1.73;;;;;;;16.50;66.58;100038.00;10480360;28;20389;-61
2023/09/29 04:13:31;;;;;;;6.53;1.98;;;;;;;16.52;66.61;100040.50;10487646;28;20040;-62
2023/09/29 04:18:33;;;;;;;3.45;2.00;;;;;;;16.44;66.29;100033.22;10474216;28;20044;-61
2023/09/29 04:23:35;;;;;;;6.82;2.22;;;;;;;16.34;66.67;100036.69;10467210;28;20052;-61
2023/09/29 04:28:37;;;;;;;3.75;1.92;;;;;;;16.35;66.72;100019.88;10469202;28;20052;-61
2023/09/29 04:33:40;;;;;;;3.20;1.80;;;;;;;16.41;66.49;100027.28;10474857;28;20041;-61
2023/09/29 04:38:42;;;;;;;6.80;2.05;;;;;;;16.39;66.77;100022.16;10480535;28;20125;-61
2023/09/29 04:43:44;;;;;;;3.35;1.75;;;;;;;16.35;66.70;100015.44;10466042;28;20247;-61
2023/09/29 04:48:46;;;;;;;3.80;2.15;;;;;;;16.32;66.75;100018.34;10453810;28;20096;-60
2023/09/29 04:53:48;;;;;;;6.18;2.60;;;;;;;16.32;66.56;100025.44;10476539;28;20049;-60
2023/09/29 04:58:50;;;;;;;4.07;1.98;;;;;;;16.33;66.81;100017.38;10472779;28;20049;-61
2023/09/29 05:03:53;;;;;;;4.57;2.03;;;;;;;16.30;66.39;100027.34;10473861;28;20044;-61
2023/09/29 05:08:56;;;;;;;3.50;1.95;;;;;;;16.12;67.06;100021.78;10472669;28;20063;-60
2023/09/29 05:13:58;;;;;;;3.60;2.05;;;;;;;16.11;67.23;100023.56;10474350;28;20404;-61
2023/09/29 05:19:00;;;;;;;2.95;1.73;;;;;;;16.08;67.29;100026.44;10482584;28;20036;-61
2023/09/29 05:24:03;;;;;;;4.57;1.90;;;;;;;16.19;67.16;100025.59;10474854;28;20051;-61
2023/09/29 05:29:05;;;;;;;4.38;2.28;;;;;;;16.23;67.34;100022.59;10467393;28;20424;-61
2023/09/29 05:34:07;;;;;;;2.67;1.77;;;;;;;16.36;67.01;100021.56;10465406;28;20048;-61
2023/09/29 05:39:10;;;;;;;5.90;2.65;;;;;;;16.42;67.04;100029.00;10461307;28;20044;-62
2023/09/29 05:44:12;;;;;;;6.95;2.20;;;;;;;16.48;66.83;100018.78;10461655;28;20056;-62
2023/09/29 05:49:14;;;;;;;3.38;2.10;;;;;;;16.52;66.58;99999.09;10467525;28;20500;-62
2023/09/29 05:54:16;;;;;;;4.30;2.10;;;;;;;16.48;66.45;100002.13;10467034;28;20051;-62
2023/09/29 05:59:18;;;;;;;4.45;2.40;;;;;;;16.22;67.33;100010.34;10468131;28;20127;-62
2023/09/29 06:04:20;;;;;;;3.08;1.70;;;;;;;16.31;67.46;100024.59;10465625;28;20389;-63
2023/09/29 06:09:22;;;;;;;3.70;2.28;;;;;;;16.43;67.36;100026.25;10465533;28;20043;-62
2023/09/29 06:14:24;;;;;;;5.03;2.13;;;;;;;16.59;66.94;100016.09;10466731;28;20041;-62
2023/09/29 06:19:26;;;;;;;5.93;2.15;;;;;;;16.60;67.23;100024.84;10457478;28;20055;-62
2023/09/29 06:24:28;;;;;;;4.38;2.40;;;;;;;16.65;66.94;100028.78;10446860;28;20137;-62
2023/09/29 06:29:30;;;;;;;6.38;2.42;;;;;;;16.79;67.11;100022.38;10473472;28;20101;-62
2023/09/29 06:34:32;;;;;;;3.00;1.95;;;;;;;16.89;66.52;100031.19;10452144;28;20056;-61
2023/09/29 06:39:35;;;;;;;10.35;2.63;;;;;;;17.02;66.66;100008.03;10473505;28;20048;-62
2023/09/29 06:44:37;;;;;;;7.70;2.83;;;;;;;16.97;66.32;99997.03;10476888;28;20052;-62
2023/09/29 06:49:39;;;;;;;5.28;2.60;;;;;;;16.85;66.77;99987.50;10474228;28;20508;-62
2023/09/29 06:54:41;;;;;;;4.63;2.20;;;;;;;16.90;66.83;99991.44;10461298;28;20041;-62
2023/09/29 06:59:43;;;;;;;3.67;1.85;;;;;;;16.78;67.21;99994.25;10477330;28;20044;-62
2023/09/29 07:04:47;;;;;;;3.80;2.30;;;;;;;16.74;67.02;99985.78;10470789;28;20149;-62
2023/09/29 07:09:50;;;;;;;5.45;2.70;;;;;;;16.83;66.83;99984.16;10449406;28;20555;-62
2023/09/29 07:14:52;;;;;;;6.05;2.55;;;;;;;17.08;66.79;99985.56;10442829;28;20048;-62
2023/09/29 07:19:54;;;;;;;4.10;2.60;;;;;;;17.89;65.49;99981.00;10470442;28;20464;-62
2023/09/29 07:24:57;;;;;;;5.47;2.97;;;;;;;18.60;64.67;99977.16;10470766;28;20067;-62
2023/09/29 07:30:00;;;;;;;5.93;3.20;;;;;;;18.92;64.08;99982.09;10470675;28;20470;-62
2023/09/29 07:35:03;;;;;;;6.93;2.97;;;;;;;18.87;63.82;99989.66;10470922;28;20094;-62
2023/09/29 07:40:07;;;;;;;5.65;2.70;;;;;;;18.94;63.51;99994.22;10471328;28;20040;-62
2023/09/29 07:45:09;;;;;;;8.00;3.20;;;;;;;19.28;63.08;99992.75;10471952;28;20452;-62
2023/09/29 07:50:11;;;;;;;5.90;3.47;;;;;;;19.42;62.53;99997.56;10469020;28;20049;-62
2023/09/29 07:55:14;;;;;;;5.22;2.90;;;;;;;19.83;61.95;99990.13;10471741;28;20126;-62
2023/09/29 08:00:16;;;;;;;4.53;2.72;;;;;;;20.08;61.44;99997.38;10469445;28;20040;-58
2023/09/29 08:05:19;;;;;;;5.85;3.08;;;;;;;20.27;61.57;100007.88;10463815;28;20043;-62
2023/09/29 08:10:21;;;;;;;7.60;3.20;;;;;;;20.42;61.14;100006.34;10468586;28;20048;-62
2023/09/29 08:15:24;;;;;;;5.18;2.65;;;;;;;20.98;59.68;99996.22;10473116;28;20048;-63
2023/09/29 08:20:26;;;;;;;5.88;3.03;;;;;;;21.17;59.20;99991.66;10446088;28;20094;-62
2023/09/29 08:25:29;;;;;;;5.57;2.92;;;;;;;21.44;59.06;99978.19;10466936;28;20060;-62
2023/09/29 08:30:31;;;;;;;5.30;2.80;;;;;;;21.45;58.84;99985.19;10473800;28;20708;-62
2023/09/29 08:35:34;;;;;;;5.40;2.70;;;;;;;21.33;59.00;99981.97;10465644;28;20221;-62
2023/09/29 08:40:39;;;;;;;6.65;2.67;;;;;;;21.12;59.45;99994.78;10471176;28;20490;-62
2023/09/29 08:45:42;;;;;;;7.35;3.30;;;;;;;21.14;59.66;99990.13;10467061;28;20424;-62
2023/09/29 08:50:49;;;;;;;4.30;2.60;;;;;;;21.26;59.38;99988.88;10462154;28;20072;-62
2023/09/29 08:55:56;;;;;;;7.15;3.60;;;;;;;21.37;59.25;99982.47;10463527;28;20561;-62
2023/09/29 09:00:58;;;;;;;7.32;3.05;;;;;;;21.52;59.04;99988.84;10467215;28;20389;-62
2023/09/29 09:06:01;;;;;;;7.05;2.63;;;;;;;21.92;58.76;99981.84;10460179;28;20044;-62
2023/09/29 09:11:03;;;;;;;7.00;2.58;;;;;;;22.11;58.37;99980.75;10467850;28;20080;-61
2023/09/29 09:16:07;;;;;;;5.15;2.33;;;;;;;22.17;58.18;99980.09;10468150;28;20482;-61
2023/09/29 09:21:09;;;;;;;4.97;2.58;;;;;;;22.55;57.44;99973.31;10471222;28;20047;-61
2023/09/29 09:26:17;;;;;;;6.03;3.45;;;;;;;22.66;56.65;99957.78;10467704;28;20102;-62
2023/09/29 09:31:19;;;;;;;6.75;3.45;;;;;;;22.84;56.25;99956.81;10469832;28;20127;-61
2023/09/29 09:36:21;;;;;;;7.63;3.28;;;;;;;22.84;56.31;99949.63;10463738;28;20052;-62
2023/09/29 09:41:24;;;;;;;5.78;2.53;;;;;;;23.07;55.36;99955.91;10459827;28;20519;-62
2023/09/29 09:46:28;;;;;;;4.07;2.20;;;;;;;23.30;55.06;99956.00;10470025;28;20350;-61
2023/09/29 09:51:34;;;;;;;4.85;2.10;;;;;;;23.39;54.36;99963.00;10467004;28;20135;-62
2023/09/29 09:56:51;;;;;;;4.22;2.17;;;;;;;23.45;53.54;99963.16;10465668;28;20131;-62
2023/09/29 10:01:55;;;;;;;8.65;2.40;;;;;;;23.81;54.54;99974.19;10468294;28;20356;-62
2023/09/29 10:06:59;;;;;;;5.53;2.38;;;;;;;24.24;53.94;99986.97;10465652;28;20055;-62
2023/09/29 10:12:02;;;;;;;4.03;2.40;;;;;;;24.38;53.10;99981.84;10450672;28;20312;-61
2023/09/29 10:17:06;;;;;;;4.07;2.50;;;;;;;24.40;53.06;99987.84;10436870;28;20042;-62
2023/09/29 10:22:09;;;;;;;3.88;2.15;;;;;;;24.26;52.65;99973.41;10475263;28;20127;-62
2023/09/29 10:27:11;;;;;;;5.18;2.60;;;;;;;24.21;53.13;99960.59;10486076;28;20297;-62
2023/09/29 10:32:15;;;;;;;7.63;2.40;;;;;;;24.05;53.70;99958.00;10468249;28;20055;-62
2023/09/29 10:37:18;;;;;;;4.95;2.40;;;;;;;24.10;53.45;99954.84;10468676;28;20052;-62
2023/09/29 10:42:22;;;;;;;4.93;2.20;;;;;;;24.28;52.99;99956.19;10465761;28;20345;-62
2023/09/29 10:47:34;;;;;;;4.03;2.10;;;;;;;24.45;52.04;99940.03;10466364;28;20512;-62
2023/09/29 10:52:37;;;;;;;4.45;2.17;;;;;;;24.65;52.44;99938.50;10463235;28;20080;-62
2023/09/29 10:57:42;;;;;;;4.10;1.90;;;;;;;24.94;51.90;99930.53;10467377;28;20048;-61
2023/09/29 11:02:48;;;;;;;3.80;1.92;;;;;;;25.17;51.08;99928.59;10469860;28;20651;-61
2023/09/29 11:07:51;;;;;;;5.90;1.80;;;;;;;25.26;51.15;99913.28;10468732;28;20127;-61
2023/09/29 11:12:53;;;;;;;4.88;2.00;;;;;;;25.26;50.73;99922.16;10463480;28;20518;-61
2023/09/29 11:17:55;;;;;;;3.38;1.80;;;;;;;25.13;50.51;99921.13;10448237;28;20041;-61
2023/09/29 11:23:12;;;;;;;2.88;1.70;;;;;;;25.06;48.86;99907.69;10466708;28;20070;-62
2023/09/29 11:28:15;;;;;;;5.28;1.98;;;;;;;25.47;49.87;99916.88;10479398;28;20053;-62
2023/09/29 11:33:19;;;;;;;4.78;2.13;;;;;;;25.25;49.31;99939.22;10460703;28;20155;-62
2023/09/29 11:38:21;;;;;;;3.08;1.67;;;;;;;24.56;48.85;99937.75;10461571;28;20115;-62
2023/09/29 11:43:24;;;;;;;5.60;1.90;;;;;;;23.90;49.22;99950.94;10454201;28;20131;-62
2023/09/29 11:48:26;;;;;;;4.63;1.85;;;;;;;23.82;49.91;99959.00;10461457;28;20412;-62
2023/09/29 11:53:30;;;;;;;4.55;1.73;;;;;;;23.74;49.88;99985.72;10461349;28;20045;-62
2023/09/29 11:58:31;;;;;;;3.80;2.13;;;;;;;23.55;50.39;99995.00;10456545;28;20056;-62
2023/09/29 12:03:34;;;;;;;2.65;1.40;;;;;;;23.59;49.92;100003.50;10461083;28;20272;-62
2023/09/29 12:08:37;;;;;;;4.72;2.15;;;;;;;23.34;50.42;100010.72;10462209;28;20056;-62
2023/09/29 12:13:40;;;;;;;4.50;1.80;;;;;;;23.02;50.83;100016.13;10445987;28;20047;-62
2023/09/29 12:18:42;;;;;;;3.05;1.70;;;;;;;23.09;51.21;100017.94;10460307;28;20049;-61
2023/09/29 12:23:45;;;;;;;5.65;2.33;;;;;;;23.20;50.43;100030.09;10459472;28;20516;-61
2023/09/29 12:28:48;;;;;;;3.67;1.70;;;;;;;23.23;50.94;100048.41;10463027;28;20060;-62
2023/09/29 12:33:53;;;;;;;6.13;2.17;;;;;;;23.28;50.01;100041.59;10462643;28;20055;-62
2023/09/29 12:38:57;;;;;;;7.10;2.58;;;;;;;22.97;49.31;100034.47;10459517;28;20354;-61
2023/09/29 12:44:00;;;;;;;6.07;2.30;;;;;;;23.31;49.16;100051.06;10459162;28;20052;-62
2023/09/29 12:49:03;;;;;;;10.57;2.70;;;;;;;23.45;47.74;100045.91;10443819;28;20401;-62
2023/09/29 12:54:06;;;;;;;8.10;2.35;;;;;;;23.56;48.20;100051.88;10428101;28;20040;-62
2023/09/29 12:59:10;;;;;;;5.88;2.17;;;;;;;23.79;47.73;100060.81;10466530;28;20052;-62
2023/09/29 13:04:12;;;;;;;9.50;3.13;;;;;;;23.85;47.30;100063.63;10454919;28;20836;-61
2023/09/29 13:09:15;;;;;;;10.38;3.17;;;;;;;23.87;47.37;100072.31;10453874;28;20045;-62
2023/09/29 13:14:18;;;;;;;10.35;3.15;;;;;;;23.93;47.50;100076.97;10459083;28;20134;-61
2023/09/29 13:19:20;;;;;;;7.28;2.67;;;;;;;23.87;47.30;100068.78;10458956;28;20158;-61
2023/09/29 13:24:24;;;;;;;9.93;2.95;;;;;;;23.69;47.04;100082.38;10444602;28;20033;-61
2023/09/29 13:29:27;;;;;;;8.40;3.30;;;;;;;23.65;47.50;100089.09;10460856;28;20424;-61
2023/09/29 13:34:29;;;;;;;10.80;3.67;;;;;;;23.67;46.80;100100.44;10475577;28;20044;-61
2023/09/29 13:39:32;;;;;;;10.68;3.22;;;;;;;23.45;47.05;100093.13;10462732;28;20050;-61
2023/09/29 13:44:34;;;;;;;9.73;3.72;;;;;;;23.39;47.12;100102.59;10462598;28;20182;-61
2023/09/29 13:49:37;;;;;;;11.38;4.25;;;;;;;23.55;46.64;100100.94;10463371;28;20048;-61
2023/09/29 13:54:39;;;;;;;13.05;4.05;;;;;;;23.52;46.87;100088.78;10463037;28;20051;-61
2023/09/29 13:59:41;;;;;;;14.10;4.82;;;;;;;23.58;46.73;100092.59;10472415;28;20214;-61
2023/09/29 14:04:44;;;;;;;17.50;5.70;;;;;;;23.51;46.50;100103.13;10448514;28;20052;-61
2023/09/29 14:09:47;;;;;;;15.40;5.10;;;;;;;23.41;46.60;100097.16;10462072;28;20139;-61
2023/09/29 14:14:49;;;;;;;18.75;5.47;;;;;;;23.36;46.38;100100.28;10472620;28;20493;-61
2023/09/29 14:19:51;;;;;;;15.18;5.35;;;;;;;23.21;46.56;100096.63;10464304;28;20127;-61
2023/09/29 14:24:53;;;;;;;15.07;4.55;;;;;;;23.14;46.51;100089.47;10466705;28;20041;-61
2023/09/29 14:29:55;;;;;;;18.67;5.63;;;;;;;23.11;46.57;100074.63;10463445;28;20154;-61
2023/09/29 14:34:57;;;;;;;15.80;4.88;;;;;;;22.97;46.74;100077.97;10456343;28;20438;-61
2023/09/29 14:39:59;;;;;;;14.20;4.45;;;;;;;23.35;46.63;100082.59;10463579;28;20492;-61
2023/09/29 14:45:02;;;;;;;11.27;4.15;;;;;;;23.51;46.25;100092.47;10461453;28;20139;-61
2023/09/29 14:50:06;;;;;;;14.02;4.57;;;;;;;23.25;46.13;100091.78;10470299;28;20040;-61
2023/09/29 14:55:09;;;;;;;12.30;4.13;;;;;;;22.91;45.91;100099.97;10466274;28;20044;-61
2023/09/29 15:00:12;;;;;;;11.48;3.92;;;;;;;22.96;46.20;100113.66;10480567;28;20048;-61
2023/09/29 15:05:15;;;;;;;12.93;4.40;;;;;;;22.95;46.54;100124.47;10467933;28;20686;-61
2023/09/29 15:10:17;;;;;;;12.23;3.97;;;;;;;22.98;46.25;100121.50;10468164;28;21585;-62
2023/09/29 15:15:19;;;;;;;12.60;4.05;;;;;;;22.90;46.42;100116.16;10468179;28;20136;-61
2023/09/29 15:20:21;;;;;;;14.18;4.45;;;;;;;22.75;46.64;100129.31;10447319;28;20071;-61
2023/09/29 15:25:25;;;;;;;14.48;4.32;;;;;;;22.59;46.78;100132.75;10467079;28;20052;-62
2023/09/29 15:30:27;;;;;;;13.68;4.05;;;;;;;22.46;46.77;100135.03;10461301;28;20056;-61
2023/09/29 15:35:29;;;;;;;10.10;3.80;;;;;;;22.35;47.13;100137.19;10471013;28;20705;-61
2023/09/29 15:40:31;;;;;;;12.82;3.85;;;;;;;22.32;47.36;100143.66;10463600;28;20041;-61
2023/09/29 15:45:33;;;;;;;11.57;3.80;;;;;;;22.25;47.48;100134.63;10464765;28;20056;-61
2023/09/29 15:50:36;;;;;;;13.15;3.88;;;;;;;22.20;47.67;100142.28;10460971;28;20041;-61
2023/09/29 15:55:42;;;;;;;10.93;3.50;;;;;;;22.27;47.56;100139.81;10456431;28;20196;-61
2023/09/29 16:00:44;;;;;;;11.35;3.58;;;;;;;22.26;47.53;100144.31;10455000;28;20305;-61
2023/09/29 16:05:46;;;;;;;9.77;3.40;;;;;;;22.05;47.93;100145.72;10452427;28;20135;-61
2023/09/29 16:10:48;;;;;;;9.52;3.45;;;;;;;21.85;48.28;100145.09;10478146;28;20139;-61
2023/09/29 16:15:54;;;;;;;15.07;3.50;;;;;;;21.76;48.81;100148.72;10464809;28;20130;-61
2023/09/29 16:20:57;;;;;;;12.38;3.53;;;;;;;21.61;48.96;100145.78;10446876;28;20043;-61
2023/09/29 16:25:59;;;;;;;14.18;4.28;;;;;;;21.55;49.24;100156.22;10464477;28;20446;-61
2023/09/29 16:31:03;;;;;;;11.35;3.70;;;;;;;21.40;49.66;100157.75;10448736;28;20040;-61
2023/09/29 16:36:05;;;;;;;14.23;3.72;;;;;;;21.24;49.93;100171.75;10466374;28;20044;-61
2023/09/29 16:41:07;;;;;;;13.30;3.35;;;;;;;21.23;50.08;100182.56;10460192;28;20567;-61
2023/09/29 16:46:09;;;;;;;10.55;3.40;;;;;;;21.31;50.32;100180.78;10461143;28;20045;-61
2023/09/29 16:51:12;;;;;;;6.10;2.72;;;;;;;21.19;50.77;100194.47;10458645;28;20471;-61
2023/09/29 16:56:14;;;;;;;9.85;2.42;;;;;;;21.10;50.92;100201.53;10460103;28;20610;-61
2023/09/29 17:01:16;;;;;;;7.47;2.58;;;;;;;21.19;50.90;100207.78;10460122;28;20385;-61
2023/09/29 17:06:24;;;;;;;8.90;2.60;;;;;;;21.18;51.20;100216.75;10464550;28;20040;-61
2023/09/29 17:11:28;;;;;;;7.40;2.70;;;;;;;21.12;51.24;100210.22;10450451;28;21408;-61
2023/09/29 17:16:30;;;;;;;7.38;2.78;;;;;;;21.01;51.38;100221.91;10457711;28;20036;-61
2023/09/29 17:21:33;;;;;;;6.90;2.53;;;;;;;20.94;51.90;100228.84;10457168;28;20083;-61
2023/09/29 17:26:35;;;;;;;7.88;2.35;;;;;;;20.84;52.15;100233.38;10457097;28;20216;-61
2023/09/29 17:31:38;;;;;;;9.75;2.20;;;;;;;20.90;52.31;100234.59;10464170;28;20049;-61
2023/09/29 17:36:40;;;;;;;5.47;2.20;;;;;;;20.92;52.20;100246.75;10456042;28;20189;-61
2023/09/29 17:41:42;;;;;;;9.02;2.55;;;;;;;20.87;52.45;100240.19;10457666;28;20056;-61
2023/09/29 17:46:45;;;;;;;7.03;2.30;;;;;;;20.83;52.79;100252.13;10443296;28;20052;-61
2023/09/29 17:51:47;;;;;;;12.20;2.63;;;;;;;20.64;52.98;100244.25;10457301;28;20661;-61
2023/09/29 17:56:49;;;;;;;8.63;2.63;;;;;;;20.61;53.15;100253.38;10439787;28;20056;-61
2023/09/29 18:01:51;;;;;;;11.90;3.00;;;;;;;20.56;53.54;100257.44;10459305;28;20036;-61
2023/09/29 18:06:56;;;;;;;8.80;2.30;;;;;;;20.49;53.81;100272.25;10458281;28;20048;-61
2023/09/29 18:12:00;;;;;;;6.93;2.30;;;;;;;20.54;53.93;100291.28;10457371;28;20052;-62
2023/09/29 18:17:03;;;;;;;8.10;2.28;;;;;;;20.53;54.44;100306.38;10458035;28;20098;-61
2023/09/29 18:22:05;;;;;;;8.70;2.58;;;;;;;20.27;57.09;100324.75;10444151;28;20048;-61
2023/09/29 18:27:08;;;;;;;7.18;2.65;;;;;;;19.86;59.18;100335.75;10464359;28;20059;-61
2023/09/29 18:32:10;;;;;;;4.43;1.60;;;;;;;19.38;60.65;100367.53;10466444;28;20214;-61
2023/09/29 18:37:13;;;;;;;4.15;1.77;;;;;;;18.85;62.22;100387.28;10467455;28;20351;-61
2023/09/29 18:42:15;;;;;;;2.95;1.33;;;;;;;18.46;61.88;100407.44;10472138;28;20047;-61
2023/09/29 18:47:18;;;;;;;2.55;1.20;;;;;;;18.22;62.64;100419.28;10468812;28;20125;-61
2023/09/29 18:52:20;;;;;;;1.70;0.98;;;;;;;18.02;62.87;100434.13;10470942;28;20439;-61
2023/09/29 18:57:22;;;;;;;2.20;1.10;;;;;;;17.95;63.06;100448.00;10468345;28;20047;-61
2023/09/29 19:02:24;;;;;;;4.20;1.27;;;;;;;17.95;63.39;100459.44;10463323;28;20036;-61
2023/09/29 19:07:26;;;;;;;4.13;1.42;;;;;;;17.87;63.13;100482.19;10473515;28;20089;-61
2023/09/29 19:12:28;;;;;;;6.32;1.17;;;;;;;17.69;63.65;100495.94;10447266;28;20501;-61
2023/09/29 19:17:30;;;;;;;3.03;1.50;;;;;;;17.60;63.43;100511.69;10465794;28;20044;-61
2023/09/29 19:22:32;;;;;;;3.65;1.58;;;;;;;17.66;63.19;100511.22;10470030;28;20099;-61
2023/09/29 19:27:35;;;;;;;6.05;1.95;;;;;;;17.75;63.45;100536.94;10468570;28;20045;-61
2023/09/29 19:32:38;;;;;;;3.92;1.52;;;;;;;17.73;63.55;100550.28;10470600;28;20270;-61
2023/09/29 19:37:41;;;;;;;4.38;1.70;;;;;;;17.76;63.19;100557.97;10467877;28;20687;-61
2023/09/29 19:42:43;;;;;;;5.70;2.03;;;;;;;17.57;63.26;100565.69;10470292;28;20568;-61
2023/09/29 19:47:45;;;;;;;3.10;1.73;;;;;;;17.71;63.05;100570.72;10469622;28;20466;-61
2023/09/29 19:52:47;;;;;;;2.95;1.70;;;;;;;17.80;62.98;100566.50;10471761;28;20033;-61
2023/09/29 19:57:49;;;;;;;5.60;1.50;;;;;;;17.72;62.78;100572.41;10456605;28;20082;-60
2023/09/29 20:02:51;;;;;;;10.32;2.55;;;;;;;17.72;62.39;100588.28;10473641;28;20522;-60
2023/09/29 20:07:53;;;;;;;3.85;1.23;;;;;;;17.75;62.45;100585.38;10449211;28;20053;-60
2023/09/29 20:12:55;;;;;;;3.97;1.67;;;;;;;17.75;62.49;100606.56;10465944;28;20044;-60
2023/09/29 20:17:57;;;;;;;3.15;1.63;;;;;;;17.69;62.63;100606.19;10468698;28;20063;-60
2023/09/29 20:23:00;;;;;;;5.32;1.58;;;;;;;17.74;62.47;100601.38;10464766;28;20412;-60
2023/09/29 20:28:03;;;;;;;3.67;1.20;;;;;;;17.71;62.31;100615.69;10466096;28;20044;-60
2023/09/29 20:33:07;;;;;;;2.05;1.00;;;;;;;17.80;62.12;100620.28;10469822;28;20480;-60
2023/09/29 20:38:09;;;;;;;4.80;1.67;;;;;;;17.70;61.96;100614.03;10469823;28;20044;-59
2023/09/29 20:43:13;;;;;;;2.45;1.13;;;;;;;17.58;62.39;100630.84;10443989;28;20446;-60
2023/09/29 20:48:16;;;;;;;2.70;1.10;;;;;;;17.40;62.18;100632.28;10468601;28;20145;-60
2023/09/29 20:53:19;;;;;;;6.40;1.63;;;;;;;17.30;62.57;100641.81;10447101;28;20100;-60
2023/09/29 20:58:21;;;;;;;1.77;1.05;;;;;;;17.49;62.17;100644.78;10469341;28;20041;-60
2023/09/29 21:03:23;;;;;;;5.32;1.23;;;;;;;17.61;61.74;100642.97;10448803;28;20075;-60
2023/09/29 21:08:26;;;;;;;4.22;1.38;;;;;;;17.59;61.77;100660.78;10468222;28;20051;-59
2023/09/29 21:13:28;;;;;;;4.00;1.45;;;;;;;17.51;61.69;100671.94;10451528;28;20254;-60
2023/09/29 21:18:29;;;;;;;4.45;1.65;;;;;;;17.39;61.81;100666.75;10467769;28;20778;-59
2023/09/29 21:23:31;;;;;;;4.63;1.92;;;;;;;17.40;61.54;100677.22;10449530;28;20051;-60
2023/09/29 21:28:35;;;;;;;3.40;1.20;;;;;;;17.32;61.69;100676.94;10470267;28;20735;-60
2023/09/29 21:33:37;;;;;;;2.95;1.55;;;;;;;17.29;61.58;100676.31;10463891;28;20459;-60
2023/09/29 21:38:40;;;;;;;4.45;1.63;;;;;;;17.31;61.65;100680.53;10468332;28;20476;-60
2023/09/29 21:43:42;;;;;;;2.95;1.10;;;;;;;17.34;61.69;100676.84;10464921;28;20053;-60
2023/09/29 21:48:44;;;;;;;4.03;1.73;;;;;;;17.36;61.47;100683.72;10464381;28;20064;-60
2023/09/29 21:53:46;;;;;;;3.28;1.60;;;;;;;17.28;61.94;100691.31;10465134;28;20386;-60
2023/09/29 21:58:48;;;;;;;4.25;1.60;;;;;;;17.18;62.10;100684.22;10463689;28;20059;-60
2023/09/29 22:03:50;;;;;;;3.30;1.30;;;;;;;17.14;61.99;100673.00;10447001;28;20412;-60
2023/09/29 22:08:52;;;;;;;3.10;1.30;;;;;;;17.11;62.15;100689.13;10466849;28;20040;-60
2023/09/29 22:13:54;;;;;;;9.55;2.00;;;;;;;17.09;62.03;100691.03;10465551;28;20044;-60
2023/09/29 22:18:56;;;;;;;5.53;1.77;;;;;;;17.09;62.12;100682.25;10469962;28;20484;-60
2023/09/29 22:23:58;;;;;;;6.78;2.20;;;;;;;17.08;62.70;100689.34;10464875;28;20640;-60
2023/09/29 22:29:01;;;;;;;3.92;1.52;;;;;;;17.11;62.21;100698.84;10466179;28;20044;-60
2023/09/29 22:34:04;;;;;;;4.40;1.88;;;;;;;17.01;62.75;100704.81;10469545;28;20051;-60
2023/09/29 22:39:06;;;;;;;5.40;2.20;;;;;;;16.81;62.95;100702.78;10475040;28;20496;-60
2023/09/29 22:44:09;;;;;;;5.00;1.90;;;;;;;16.81;63.00;100715.19;10463782;28;20160;-60
2023/09/29 22:49:11;;;;;;;4.88;2.05;;;;;;;16.74;62.85;100709.50;10466052;28;20127;-60
2023/09/29 22:54:13;;;;;;;5.55;2.17;;;;;;;16.63;63.42;100711.22;10464644;28;20366;-60
2023/09/29 22:59:15;;;;;;;5.85;2.67;;;;;;;16.65;63.02;100722.53;10465483;28;20463;-60
2023/09/29 23:04:18;;;;;;;7.93;2.72;;;;;;;16.74;62.78;100738.53;10465402;28;20059;-60
2023/09/29 23:09:22;;;;;;;5.07;2.40;;;;;;;16.79;62.42;100736.41;10472208;28;20169;-60